createdAt,value
2023-09-22T00:00:45.537Z,69.32
2023-09-22T00:02:07.319Z,69.34
2023-09-22T00:03:12.120Z,69.32
2023-09-22T00:04:15.011Z,69.35
2023-09-22T00:05:18.269Z,69.48
2023-09-22T00:06:23.381Z,69.53
2023-09-22T00:07:26.604Z,69.71
2023-09-22T00:08:29.563Z,69.75
2023-09-22T00:09:34.097Z,69.61
2023-09-22T00:10:37.066Z,69.66
2023-09-22T00:11:39.979Z,69.76
2023-09-22T00:12:43.252Z,69.94
2023-09-22T00:13:46.949Z,69.87
2023-09-22T00:14:50.009Z,69.84
2023-09-22T00:15:53.002Z,70.18
2023-09-22T00:16:56.367Z,70.12
2023-09-22T00:17:59.569Z,70.02
2023-09-22T00:19:06.441Z,70.17
2023-09-22T00:20:10.273Z,70.26
2023-09-22T00:21:13.242Z,70.29
2023-09-22T00:22:16.813Z,70.29
2023-09-22T00:23:19.844Z,70.31
2023-09-22T00:24:23.550Z,70.42
2023-09-22T00:25:26.904Z,70.44
2023-09-22T00:26:30.184Z,70.45
2023-09-22T00:27:33.274Z,70.38
2023-09-22T00:28:36.413Z,70.49
2023-09-22T00:29:39.396Z,70.56
2023-09-22T00:30:42.497Z,70.74
2023-09-22T00:31:45.922Z,70.72
2023-09-22T00:32:49.734Z,70.73
2023-09-22T00:33:53.427Z,70.80
2023-09-22T00:34:56.485Z,70.88
2023-09-22T00:36:03.627Z,70.88
2023-09-22T00:37:07.871Z,70.97
2023-09-22T00:38:11.915Z,71.00
2023-09-22T00:39:15.687Z,70.93
2023-09-22T00:40:18.757Z,71.13
2023-09-22T00:41:22.316Z,70.96
2023-09-22T00:42:25.472Z,71.03
2023-09-22T00:43:29.069Z,71.20
2023-09-22T00:44:32.369Z,71.18
2023-09-22T00:45:41.608Z,71.24
2023-09-22T00:46:44.602Z,71.28
2023-09-22T00:47:47.550Z,71.15
2023-09-22T00:48:51.717Z,71.28
2023-09-22T00:49:55.416Z,71.23
2023-09-22T00:50:58.830Z,71.31
2023-09-22T00:52:03.409Z,71.37
2023-09-22T00:53:06.846Z,71.43
2023-09-22T00:54:10.909Z,71.37
2023-09-22T00:55:14.088Z,71.47
2023-09-22T00:56:20.952Z,71.60
2023-09-22T00:57:24.266Z,71.50
2023-09-22T00:58:27.402Z,71.65
2023-09-22T00:59:30.361Z,71.59
2023-09-22T01:00:33.666Z,71.56
2023-09-22T01:01:37.000Z,71.63
2023-09-22T01:02:40.738Z,71.70
2023-09-22T01:03:44.289Z,71.76
2023-09-22T01:04:47.555Z,71.71
2023-09-22T01:05:51.859Z,71.86
2023-09-22T01:06:56.555Z,71.96
2023-09-22T01:07:59.515Z,71.90
2023-09-22T01:09:06.918Z,71.87
2023-09-22T01:10:10.985Z,72.06
2023-09-22T01:11:14.796Z,72.00
2023-09-22T01:12:17.851Z,72.13
2023-09-22T01:13:20.992Z,72.21
2023-09-22T01:14:23.961Z,72.13
2023-09-22T01:15:27.035Z,72.33
2023-09-22T01:16:33.804Z,72.31
2023-09-22T01:17:36.811Z,72.35
2023-09-22T01:18:39.806Z,72.38
2023-09-22T01:19:43.223Z,72.52
2023-09-22T01:20:46.816Z,72.34
2023-09-22T01:21:50.232Z,72.30
2023-09-22T01:22:53.604Z,72.54
2023-09-22T01:23:56.996Z,72.57
2023-09-22T01:24:59.992Z,72.57
2023-09-22T01:26:02.883Z,72.72
2023-09-22T01:27:06.868Z,72.56
2023-09-22T01:28:11.061Z,72.73
2023-09-22T01:29:14.418Z,72.67
2023-09-22T01:30:17.978Z,72.93
2023-09-22T01:32:58.814Z,72.84
2023-09-22T01:34:03.328Z,72.87
2023-09-22T01:35:09.625Z,72.98
2023-09-22T01:36:14.921Z,73.20
2023-09-22T01:37:18.829Z,73.21
2023-09-22T01:38:26.422Z,73.11
2023-09-22T01:39:30.024Z,73.23
2023-09-22T01:40:33.468Z,73.31
2023-09-22T01:41:36.955Z,73.36
2023-09-22T01:42:40.132Z,73.33
2023-09-22T01:43:43.327Z,73.36
2023-09-22T01:44:46.262Z,73.40
2023-09-22T01:45:49.349Z,73.58
2023-09-22T01:46:52.415Z,73.60
2023-09-22T01:47:55.307Z,73.64
2023-09-22T01:48:58.542Z,73.75
2023-09-22T01:50:01.535Z,73.66
2023-09-22T01:51:05.042Z,73.64
2023-09-22T01:52:07.996Z,73.83
2023-09-22T01:53:12.146Z,73.83
2023-09-22T01:54:15.526Z,73.85
2023-09-22T01:55:18.577Z,73.86
2023-09-22T01:56:22.561Z,74.07
2023-09-22T01:57:25.567Z,74.06
2023-09-22T01:58:28.643Z,74.08
2023-09-22T01:59:31.751Z,74.19
2023-09-22T02:00:35.828Z,74.22
2023-09-22T02:01:38.792Z,74.18
2023-09-22T02:02:44.596Z,74.33
2023-09-22T02:03:48.132Z,74.30
2023-09-22T02:04:51.325Z,74.34
2023-09-22T02:05:54.868Z,74.38
2023-09-22T02:06:58.304Z,74.49
2023-09-22T02:08:01.415Z,74.53
2023-09-22T02:09:05.378Z,74.46
2023-09-22T02:10:11.189Z,75.21
2023-09-22T02:11:14.234Z,74.68
2023-09-22T02:12:17.151Z,74.80
2023-09-22T02:13:20.112Z,74.89
2023-09-22T02:14:23.103Z,74.84
2023-09-22T02:15:26.277Z,74.74
2023-09-22T02:16:29.483Z,74.80
2023-09-22T02:17:32.990Z,74.91
2023-09-22T02:18:36.835Z,74.82
2023-09-22T02:19:39.885Z,74.93
2023-09-22T02:20:43.437Z,75.13
2023-09-22T02:21:47.291Z,75.01
2023-09-22T02:22:51.592Z,74.98
2023-09-22T02:23:55.006Z,75.00
2023-09-22T02:24:58.596Z,75.00
2023-09-22T02:26:08.452Z,75.14
2023-09-22T02:27:11.473Z,75.11
2023-09-22T02:28:14.495Z,75.24
2023-09-22T02:29:17.442Z,75.29
2023-09-22T02:30:20.995Z,75.10
2023-09-22T02:31:25.330Z,75.23
2023-09-22T02:32:28.273Z,75.30
2023-09-22T02:33:31.998Z,75.33
2023-09-22T02:34:35.959Z,75.44
2023-09-22T02:35:42.548Z,75.62
2023-09-22T02:36:46.399Z,75.67
2023-09-22T02:37:50.306Z,75.57
2023-09-22T02:38:54.161Z,75.60
2023-09-22T02:39:57.430Z,75.70
2023-09-22T02:41:00.416Z,75.62
2023-09-22T02:43:54.602Z,75.71
2023-09-22T02:45:10.181Z,75.48
2023-09-22T02:46:13.296Z,75.67
2023-09-22T02:47:17.445Z,75.66
2023-09-22T02:48:20.515Z,75.80
2023-09-22T02:49:24.255Z,75.80
2023-09-22T02:50:27.187Z,75.79
2023-09-22T02:51:30.544Z,75.85
2023-09-22T02:52:34.121Z,76.00
2023-09-22T02:53:37.179Z,76.03
2023-09-22T02:54:40.355Z,75.99
2023-09-22T02:55:43.363Z,76.16
2023-09-22T02:56:46.328Z,76.09
2023-09-22T02:57:49.483Z,76.23
2023-09-22T02:58:52.574Z,76.40
2023-09-22T02:59:55.944Z,76.39
2023-09-22T03:00:59.098Z,76.37
2023-09-22T03:02:02.165Z,76.41
2023-09-22T03:03:06.591Z,76.63
2023-09-22T03:04:10.920Z,76.60
2023-09-22T03:05:18.656Z,76.59
2023-09-22T03:06:23.908Z,76.79
2023-09-22T03:07:26.928Z,76.94
2023-09-22T03:08:32.778Z,76.86
2023-09-22T03:09:35.755Z,77.01
2023-09-22T03:10:40.893Z,77.41
2023-09-22T03:11:44.272Z,77.29
2023-09-22T03:12:52.362Z,77.25
2023-09-22T03:13:55.242Z,77.23
2023-09-22T03:14:58.206Z,77.39
2023-09-22T03:16:02.176Z,77.51
2023-09-22T03:17:05.490Z,77.48
2023-09-22T03:18:08.551Z,77.49
2023-09-22T03:19:11.593Z,77.53
2023-09-22T03:20:15.039Z,77.45
2023-09-22T03:21:23.776Z,77.64
2023-09-22T03:22:27.291Z,77.47
2023-09-22T03:23:30.165Z,77.63
2023-09-22T03:24:33.168Z,77.72
2023-09-22T03:25:36.258Z,77.72
2023-09-22T03:26:39.689Z,77.64
2023-09-22T03:27:42.613Z,77.87
2023-09-22T03:28:47.586Z,77.99
2023-09-22T03:29:50.681Z,78.06
2023-09-22T03:30:53.618Z,77.98
2023-09-22T03:31:56.918Z,78.05
2023-09-22T03:33:00.187Z,78.19
2023-09-22T03:34:03.822Z,78.16
2023-09-22T03:35:08.395Z,78.17
2023-09-22T03:36:11.566Z,78.18
2023-09-22T03:37:14.856Z,78.33
2023-09-22T03:38:18.044Z,78.30
2023-09-22T03:39:23.106Z,78.31
2023-09-22T03:40:42.040Z,78.39
2023-09-22T03:41:46.255Z,78.38
2023-09-22T03:42:49.279Z,78.36
2023-09-22T03:43:52.481Z,78.46
2023-09-22T03:44:55.362Z,78.48
2023-09-22T03:45:58.633Z,78.39
2023-09-22T03:47:01.632Z,78.41
2023-09-22T03:48:05.220Z,78.62
2023-09-22T03:49:08.960Z,78.65
2023-09-22T03:50:12.243Z,78.69
2023-09-22T03:51:15.566Z,78.74
2023-09-22T03:52:18.530Z,78.84
2023-09-22T03:53:22.286Z,78.83
2023-09-22T03:54:25.544Z,78.70
2023-09-22T03:55:28.527Z,78.85
2023-09-22T03:56:33.097Z,78.79
2023-09-22T03:57:36.461Z,79.03
2023-09-22T03:58:41.245Z,78.92
2023-09-22T03:59:44.230Z,78.93
2023-09-22T04:00:47.715Z,79.16
2023-09-22T04:01:52.529Z,79.19
2023-09-22T04:02:55.641Z,79.13
2023-09-22T04:03:58.988Z,79.18
2023-09-22T04:05:02.169Z,79.22
2023-09-22T04:06:06.282Z,79.29
2023-09-22T04:07:09.221Z,79.48
2023-09-22T04:08:12.030Z,79.36
2023-09-22T04:09:15.049Z,79.36
2023-09-22T04:10:18.185Z,79.35
2023-09-22T04:11:21.781Z,79.66
2023-09-22T04:12:24.768Z,79.69
2023-09-22T04:13:28.368Z,79.80
2023-09-22T04:14:31.823Z,80.01
2023-09-22T04:15:35.001Z,79.62
2023-09-22T04:16:37.983Z,79.90
2023-09-22T04:17:41.027Z,79.77
2023-09-22T04:18:44.566Z,79.71
2023-09-22T04:19:50.735Z,79.80
2023-09-22T04:20:53.824Z,80.06
2023-09-22T04:21:57.831Z,79.91
2023-09-22T04:23:00.832Z,79.98
2023-09-22T04:24:04.829Z,80.03
2023-09-22T04:25:12.621Z,80.12
2023-09-22T04:26:17.682Z,80.12
2023-09-22T04:27:20.646Z,80.11
2023-09-22T04:28:26.609Z,80.14
2023-09-22T04:29:31.212Z,80.14
2023-09-22T04:30:36.243Z,80.39
2023-09-22T04:31:39.646Z,80.40
2023-09-22T04:32:44.265Z,80.37
2023-09-22T04:33:48.381Z,80.35
2023-09-22T04:34:54.751Z,80.54
2023-09-22T04:35:58.180Z,80.42
2023-09-22T04:37:05.516Z,80.68
2023-09-22T04:38:10.353Z,80.47
2023-09-22T04:39:15.666Z,80.62
2023-09-22T04:40:38.228Z,80.75
2023-09-22T04:41:42.049Z,80.73
2023-09-22T04:42:46.198Z,80.73
2023-09-22T04:43:49.396Z,80.73
2023-09-22T04:44:53.143Z,80.93
2023-09-22T04:45:56.158Z,80.97
2023-09-22T04:46:59.369Z,80.80
2023-09-22T04:48:06.253Z,80.93
2023-09-22T04:49:11.316Z,81.04
2023-09-22T04:50:18.913Z,81.12
2023-09-22T04:51:21.792Z,81.16
2023-09-22T04:52:25.066Z,81.42
2023-09-22T04:53:29.381Z,81.34
2023-09-22T04:54:32.914Z,81.25
2023-09-22T04:55:38.993Z,81.25
2023-09-22T04:56:42.021Z,81.31
2023-09-22T04:57:45.192Z,81.39
2023-09-22T04:58:48.806Z,81.40
2023-09-22T04:59:54.314Z,81.58
2023-09-22T05:00:59.092Z,81.63
2023-09-22T05:02:02.047Z,81.87
2023-09-22T05:03:08.820Z,81.70
2023-09-22T05:04:12.564Z,81.69
2023-09-22T05:05:20.119Z,81.64
2023-09-22T05:06:23.115Z,81.99
2023-09-22T05:07:29.163Z,82.11
2023-09-22T05:08:32.734Z,81.97
2023-09-22T05:09:35.560Z,82.22
2023-09-22T05:10:38.532Z,82.12
2023-09-22T05:11:41.370Z,82.28
2023-09-22T05:12:44.539Z,82.17
2023-09-22T05:13:47.599Z,82.55
2023-09-22T05:14:50.727Z,82.31
2023-09-22T05:15:53.754Z,82.19
2023-09-22T05:16:56.669Z,82.30
2023-09-22T05:17:59.595Z,82.37
2023-09-22T05:19:02.659Z,82.19
2023-09-22T05:20:13.145Z,82.21
2023-09-22T05:21:16.297Z,82.30
2023-09-22T05:22:19.188Z,82.27
2023-09-22T05:23:24.295Z,82.13
2023-09-22T05:24:28.093Z,82.21
2023-09-22T05:25:31.687Z,82.07
2023-09-22T05:26:36.067Z,82.14
2023-09-22T05:27:42.026Z,82.07
2023-09-22T05:28:45.320Z,82.09
2023-09-22T05:29:48.509Z,82.28
2023-09-22T05:30:51.598Z,82.10
2023-09-22T05:31:54.649Z,81.92
2023-09-22T05:32:57.577Z,82.07
2023-09-22T05:34:00.689Z,82.10
2023-09-22T05:35:04.238Z,81.98
2023-09-22T05:36:07.701Z,81.99
2023-09-22T05:37:12.328Z,82.04
2023-09-22T05:38:15.204Z,81.83
2023-09-22T05:39:18.062Z,81.86
2023-09-22T05:40:21.141Z,81.78
2023-09-22T05:41:24.375Z,81.80
2023-09-22T05:42:27.326Z,81.76
2023-09-22T05:43:32.264Z,81.58
2023-09-22T05:44:35.674Z,81.51
2023-09-22T05:45:38.876Z,81.65
2023-09-22T05:46:42.112Z,81.31
2023-09-22T05:47:44.968Z,81.30
2023-09-22T05:48:48.309Z,81.39
2023-09-22T05:49:51.413Z,81.08
2023-09-22T05:50:58.976Z,81.20
2023-09-22T05:52:02.302Z,80.97
2023-09-22T05:53:05.656Z,80.91
2023-09-22T05:54:09.638Z,80.75
2023-09-22T05:55:13.644Z,80.62
2023-09-22T05:56:16.963Z,80.66
2023-09-22T05:57:19.957Z,80.52
2023-09-22T05:58:22.954Z,80.24
2023-09-22T05:59:29.032Z,80.34
2023-09-22T06:00:33.233Z,80.22
2023-09-22T06:01:38.810Z,79.99
2023-09-22T06:02:42.011Z,79.90
2023-09-22T06:03:45.864Z,79.85
2023-09-22T06:04:48.919Z,79.41
2023-09-22T06:05:51.953Z,79.24
2023-09-22T06:06:55.595Z,79.05
2023-09-22T06:08:00.339Z,78.72
2023-09-22T06:09:05.004Z,78.53
2023-09-22T06:10:09.936Z,78.54
2023-09-22T06:11:12.978Z,78.28
2023-09-22T06:12:16.097Z,78.05
2023-09-22T06:13:19.203Z,77.97
2023-09-22T06:14:22.161Z,77.74
2023-09-22T06:15:25.044Z,77.66
2023-09-22T06:16:27.993Z,77.62
2023-09-22T06:17:31.586Z,77.55
2023-09-22T06:18:35.126Z,77.40
2023-09-22T06:19:38.060Z,77.41
2023-09-22T06:20:40.957Z,77.34
2023-09-22T06:21:44.837Z,77.15
2023-09-22T06:22:54.133Z,77.05
2023-09-22T06:23:57.813Z,76.92
2023-09-22T06:25:00.847Z,76.88
2023-09-22T06:26:11.833Z,77.09
2023-09-22T06:27:14.976Z,76.98
2023-09-22T06:28:20.049Z,76.88
2023-09-22T06:29:23.511Z,76.78
2023-09-22T06:30:26.755Z,76.51
2023-09-22T06:31:29.709Z,76.10
2023-09-22T06:32:32.692Z,75.46
2023-09-22T06:33:35.733Z,75.26
2023-09-22T06:34:38.762Z,75.19
2023-09-22T06:35:41.890Z,75.23
2023-09-22T06:36:44.805Z,75.17
2023-09-22T06:37:47.703Z,74.89
2023-09-22T06:38:51.854Z,75.06
2023-09-22T06:39:55.034Z,75.07
2023-09-22T06:40:57.958Z,75.06
2023-09-22T06:42:00.901Z,74.68
2023-09-22T06:43:20.509Z,74.67
2023-09-22T06:44:29.042Z,74.64
2023-09-22T06:45:35.631Z,74.88
2023-09-22T06:46:38.615Z,74.73
2023-09-22T06:47:45.107Z,74.68
2023-09-22T06:48:48.239Z,74.38
2023-09-22T06:49:51.361Z,74.41
2023-09-22T06:50:55.222Z,74.43
2023-09-22T06:51:58.325Z,74.12
2023-09-22T06:53:01.274Z,73.87
2023-09-22T06:54:05.356Z,74.00
2023-09-22T06:55:12.716Z,73.78
2023-09-22T06:56:15.826Z,73.80
2023-09-22T06:57:18.673Z,73.62
2023-09-22T06:58:22.617Z,73.64
2023-09-22T06:59:26.926Z,73.52
2023-09-22T07:00:30.340Z,73.46
2023-09-22T07:01:34.056Z,73.55
2023-09-22T07:02:37.211Z,73.29
2023-09-22T07:03:41.867Z,73.11
2023-09-22T07:04:45.230Z,73.15
2023-09-22T07:05:48.492Z,73.13
2023-09-22T07:06:53.647Z,73.22
2023-09-22T07:07:56.655Z,73.00
2023-09-22T07:08:59.597Z,73.07
2023-09-22T07:10:04.397Z,72.97
2023-09-22T07:11:12.135Z,72.81
2023-09-22T07:12:15.523Z,72.65
2023-09-22T07:13:18.296Z,72.40
2023-09-22T07:14:21.159Z,72.38
2023-09-22T07:15:24.350Z,72.11
2023-09-22T07:16:27.567Z,72.01
2023-09-22T07:17:30.873Z,71.97
2023-09-22T07:18:33.869Z,71.58
2023-09-22T07:19:39.872Z,70.97
2023-09-22T07:20:46.077Z,70.24
2023-09-22T07:21:50.289Z,69.85
2023-09-22T07:22:53.378Z,69.10
2023-09-22T07:23:57.573Z,69.58
2023-09-22T07:25:01.128Z,68.31
2023-09-22T07:26:06.212Z,68.53
2023-09-22T07:27:09.606Z,68.26
2023-09-22T07:28:12.807Z,67.68
2023-09-22T07:29:18.301Z,67.65
2023-09-22T07:30:21.189Z,66.98
2023-09-22T07:31:29.630Z,67.07
2023-09-22T07:32:33.045Z,65.98
2023-09-22T07:33:36.093Z,66.70
2023-09-22T07:34:39.403Z,66.85
2023-09-22T07:35:43.267Z,67.01
2023-09-22T07:36:46.533Z,66.93
2023-09-22T07:37:49.590Z,67.04
2023-09-22T07:38:53.162Z,66.88
2023-09-22T07:39:56.064Z,66.27
2023-09-22T07:41:00.218Z,66.46
2023-09-22T07:42:04.307Z,66.09
2023-09-22T07:43:08.339Z,66.01
2023-09-22T07:44:11.431Z,65.99
2023-09-22T07:45:14.425Z,65.62
2023-09-22T07:46:17.571Z,65.97
2023-09-22T07:47:20.549Z,65.44
2023-09-22T07:48:23.703Z,65.24
2023-09-22T07:49:27.331Z,65.59
2023-09-22T07:50:30.866Z,65.62
2023-09-22T07:51:34.995Z,65.35
2023-09-22T07:52:38.338Z,65.20
2023-09-22T07:53:41.570Z,64.98
2023-09-22T07:54:46.544Z,64.60
2023-09-22T07:55:49.720Z,64.98
2023-09-22T07:56:52.640Z,64.58
2023-09-22T07:57:55.765Z,64.32
2023-09-22T07:59:12.845Z,63.97
2023-09-22T08:00:20.368Z,64.07
2023-09-22T08:01:25.730Z,63.65
2023-09-22T08:02:28.739Z,64.19
2023-09-22T08:03:31.670Z,63.77
2023-09-22T08:04:35.828Z,63.71
2023-09-22T08:05:40.768Z,63.42
2023-09-22T08:06:44.303Z,61.64
2023-09-22T08:07:48.800Z,62.86
2023-09-22T08:08:53.149Z,62.59
2023-09-22T08:09:56.383Z,61.95
2023-09-22T08:11:00.947Z,62.01
2023-09-22T08:12:05.710Z,61.76
2023-09-22T08:13:09.022Z,61.87
2023-09-22T08:14:12.041Z,61.92
2023-09-22T08:15:16.175Z,61.59
2023-09-22T08:16:19.985Z,61.22
2023-09-22T08:17:22.951Z,60.71
2023-09-22T08:18:25.958Z,60.66
2023-09-22T08:19:29.099Z,60.51
2023-09-22T08:20:33.086Z,60.38
2023-09-22T08:21:36.365Z,59.85
2023-09-22T08:22:41.826Z,60.34
2023-09-22T08:23:49.328Z,59.93
2023-09-22T08:24:55.496Z,60.21
2023-09-22T08:25:58.679Z,59.82
2023-09-22T08:27:02.608Z,59.41
2023-09-22T08:28:05.830Z,59.15
2023-09-22T08:29:10.662Z,59.29
2023-09-22T08:30:13.834Z,59.42
2023-09-22T08:31:17.120Z,59.32
2023-09-22T08:32:20.203Z,58.85
2023-09-22T08:33:23.988Z,59.36
2023-09-22T08:34:27.322Z,59.04
2023-09-22T08:35:30.409Z,58.79
2023-09-22T08:36:34.585Z,58.60
2023-09-22T08:37:39.664Z,58.40
2023-09-22T08:38:43.135Z,58.55
2023-09-22T08:39:46.358Z,58.66
2023-09-22T08:40:49.396Z,58.43
2023-09-22T08:41:52.820Z,58.70
2023-09-22T08:42:57.217Z,58.62
2023-09-22T08:44:00.767Z,59.00
2023-09-22T08:45:04.395Z,58.76
2023-09-22T08:46:07.543Z,58.71
2023-09-22T08:47:10.820Z,58.63
2023-09-22T08:48:14.043Z,58.71
2023-09-22T08:49:17.273Z,59.05
2023-09-22T08:50:21.131Z,59.01
2023-09-22T08:51:24.220Z,58.74
2023-09-22T08:52:28.683Z,58.79
2023-09-22T08:53:31.547Z,58.10
2023-09-22T08:54:36.017Z,58.52
2023-09-22T08:55:41.896Z,58.07
2023-09-22T08:56:45.383Z,57.99
2023-09-22T08:57:50.110Z,57.41
2023-09-22T08:58:53.147Z,57.79
2023-09-22T08:59:58.154Z,57.96
2023-09-22T09:01:03.499Z,57.82
2023-09-22T09:02:07.501Z,57.68
2023-09-22T09:03:11.400Z,57.42
2023-09-22T09:04:33.358Z,56.66
2023-09-22T09:05:38.044Z,56.49
2023-09-22T09:06:48.775Z,56.48
2023-09-22T09:07:53.102Z,55.94
2023-09-22T09:09:10.891Z,56.08
2023-09-22T09:10:26.343Z,56.14
2023-09-22T09:11:29.548Z,55.80
2023-09-22T09:12:34.579Z,56.16
2023-09-22T09:13:39.127Z,55.36
2023-09-22T09:14:43.881Z,55.88
2023-09-22T09:15:52.059Z,55.30
2023-09-22T09:16:58.348Z,55.04
2023-09-22T09:18:09.128Z,54.87
2023-09-22T09:19:18.932Z,55.25
2023-09-22T09:20:21.992Z,55.22
2023-09-22T09:21:24.861Z,54.85
2023-09-22T09:22:39.918Z,55.14
2023-09-22T09:23:54.385Z,54.84
2023-09-22T09:25:00.276Z,53.99
2023-09-22T09:26:03.846Z,54.25
2023-09-22T09:27:20.370Z,53.99
2023-09-22T09:28:24.992Z,54.46
2023-09-22T09:29:29.610Z,54.34
2023-09-22T09:30:33.545Z,54.47
2023-09-22T09:31:49.464Z,54.55
2023-09-22T09:32:52.594Z,54.19
2023-09-22T09:33:55.684Z,54.03
2023-09-22T09:34:59.080Z,54.33
2023-09-22T09:36:16.196Z,54.48
2023-09-22T09:37:20.577Z,54.68
2023-09-22T09:38:30.956Z,54.56
2023-09-22T09:39:54.394Z,54.79
2023-09-22T09:40:59.798Z,54.13
2023-09-22T09:42:03.298Z,54.45
2023-09-22T09:43:08.163Z,54.35
2023-09-22T09:44:12.551Z,53.90
2023-09-22T09:45:18.588Z,54.05
2023-09-22T09:46:22.819Z,54.01
2023-09-22T09:47:29.967Z,54.27
2023-09-22T09:48:38.701Z,54.33
2023-09-22T09:49:44.323Z,54.41
2023-09-22T09:50:49.429Z,54.48
2023-09-22T09:51:53.942Z,54.39
2023-09-22T09:53:00.412Z,54.18
2023-09-22T09:54:09.080Z,54.22
2023-09-22T09:55:14.121Z,54.29
2023-09-22T09:56:18.689Z,53.59
2023-09-22T09:57:21.891Z,52.97
2023-09-22T09:58:26.957Z,52.73
2023-09-22T09:59:30.157Z,52.12
2023-09-22T10:00:36.806Z,52.17
2023-09-22T10:01:41.926Z,52.44
2023-09-22T10:02:46.921Z,51.94
2023-09-22T10:03:51.264Z,51.97
2023-09-22T10:04:56.428Z,51.98
2023-09-22T10:05:59.671Z,52.02
2023-09-22T10:07:04.092Z,52.27
2023-09-22T10:08:08.307Z,52.00
2023-09-22T10:09:13.100Z,52.03
2023-09-22T10:10:22.758Z,52.25
2023-09-22T10:11:26.413Z,52.53
2023-09-22T10:12:31.567Z,52.32
2023-09-22T10:13:37.704Z,52.16
2023-09-22T10:14:48.618Z,52.14
2023-09-22T10:15:53.633Z,51.91
2023-09-22T10:16:56.673Z,52.20
2023-09-22T10:17:59.807Z,52.09
2023-09-22T10:19:04.262Z,51.74
2023-09-22T10:20:13.035Z,52.04
2023-09-22T10:21:37.474Z,51.75
2023-09-22T10:22:41.294Z,51.78
2023-09-22T10:24:19.375Z,52.18
2023-09-22T10:25:33.831Z,52.02
2023-09-22T10:26:37.506Z,51.31
2023-09-22T10:29:36.191Z,51.34
2023-09-22T10:30:45.548Z,51.28
2023-09-22T10:32:17.290Z,51.72
2023-09-22T10:33:33.793Z,51.27
2023-09-22T10:34:51.218Z,50.93
2023-09-22T10:35:57.510Z,50.34
2023-09-22T10:37:10.080Z,50.27
2023-09-22T10:38:13.293Z,50.95
2023-09-22T10:39:16.706Z,50.63
2023-09-22T10:40:20.878Z,49.94
2023-09-22T10:41:23.909Z,50.21
2023-09-22T10:42:28.166Z,49.25
2023-09-22T10:43:33.980Z,49.40
2023-09-22T10:45:00.824Z,49.62
2023-09-22T10:46:04.645Z,48.41
2023-09-22T10:47:09.106Z,48.37
2023-09-22T10:48:13.103Z,47.27
2023-09-22T10:49:33.731Z,47.26
2023-09-22T10:50:36.789Z,46.99
2023-09-22T10:51:44.560Z,47.24
2023-09-22T10:52:54.577Z,47.18
2023-09-22T10:54:03.655Z,47.17
2023-09-22T10:55:07.378Z,47.27
2023-09-22T10:56:10.750Z,46.54
2023-09-22T10:57:26.346Z,46.34
2023-09-22T10:58:29.300Z,45.82
2023-09-22T10:59:34.876Z,46.05
2023-09-22T11:00:41.131Z,46.42
2023-09-22T11:01:47.299Z,46.52
2023-09-22T11:02:51.042Z,46.57
2023-09-22T11:03:54.805Z,46.50
2023-09-22T11:04:58.032Z,45.96
2023-09-22T11:06:07.698Z,46.30
2023-09-22T11:07:12.494Z,46.10
2023-09-22T11:08:17.082Z,46.02
2023-09-22T11:09:33.651Z,46.06
2023-09-22T11:10:36.778Z,46.73
2023-09-22T11:11:45.447Z,46.34
2023-09-22T11:12:50.293Z,46.32
2023-09-22T11:13:57.652Z,46.31
2023-09-22T11:15:03.805Z,46.69
2023-09-22T11:16:08.200Z,46.67
2023-09-22T11:17:11.521Z,46.88
2023-09-22T11:18:25.159Z,46.89
2023-09-22T11:19:28.181Z,47.25
2023-09-22T11:20:31.178Z,47.16
2023-09-22T11:21:42.230Z,47.52
2023-09-22T11:22:47.391Z,46.92
2023-09-22T11:23:52.372Z,46.68
2023-09-22T11:24:55.385Z,46.63
2023-09-22T11:26:10.399Z,46.16
2023-09-22T11:27:13.980Z,46.19
2023-09-22T11:28:18.125Z,46.61
2023-09-22T11:29:21.117Z,46.42
2023-09-22T11:30:28.863Z,46.15
2023-09-22T11:31:33.797Z,46.09
2023-09-22T11:32:36.972Z,46.17
2023-09-22T11:33:40.879Z,46.12
2023-09-22T11:35:06.657Z,45.57
2023-09-22T11:36:14.279Z,44.99
2023-09-22T11:37:32.122Z,44.61
2023-09-22T11:38:40.949Z,44.94
2023-09-22T11:39:44.314Z,45.11
2023-09-22T11:40:47.270Z,45.17
2023-09-22T11:41:50.427Z,44.65
2023-09-22T11:42:53.433Z,44.99
2023-09-22T11:43:56.663Z,44.88
2023-09-22T11:44:59.707Z,45.14
2023-09-22T11:46:14.880Z,44.56
2023-09-22T11:47:23.139Z,43.77
2023-09-22T11:48:26.159Z,44.04
2023-09-22T11:49:38.402Z,44.24
2023-09-22T11:50:41.520Z,44.46
2023-09-22T11:51:56.895Z,44.30
2023-09-22T11:53:28.924Z,44.52
2023-09-22T11:54:35.986Z,44.52
2023-09-22T11:55:39.090Z,44.73
2023-09-22T11:56:43.244Z,45.07
2023-09-22T11:57:47.194Z,45.16
2023-09-22T11:58:50.243Z,45.19
2023-09-22T11:59:59.816Z,45.16
2023-09-22T12:01:02.895Z,45.54
2023-09-22T12:02:07.785Z,45.47
2023-09-22T12:03:11.282Z,45.59
2023-09-22T12:04:15.123Z,45.39
2023-09-22T12:05:18.051Z,45.40
2023-09-22T12:06:20.974Z,45.61
2023-09-22T12:07:24.026Z,45.75
2023-09-22T12:08:27.065Z,45.69
2023-09-22T12:09:30.267Z,45.87
2023-09-22T12:10:33.220Z,46.07
2023-09-22T12:11:36.848Z,45.95
2023-09-22T12:12:39.960Z,46.15
2023-09-22T12:13:44.725Z,46.29
2023-09-22T12:14:48.139Z,46.35
2023-09-22T12:15:51.057Z,46.42
2023-09-22T12:16:54.223Z,46.59
2023-09-22T12:17:57.351Z,46.56
2023-09-22T12:19:01.174Z,46.35
2023-09-22T12:20:07.142Z,46.58
2023-09-22T12:21:10.103Z,46.68
2023-09-22T12:22:13.037Z,46.38
2023-09-22T12:23:15.955Z,46.48
2023-09-22T12:24:19.391Z,46.59
2023-09-22T12:25:22.481Z,46.54
2023-09-22T12:26:26.373Z,46.76
2023-09-22T12:27:29.444Z,46.69
2023-09-22T12:28:32.515Z,46.87
2023-09-22T12:29:35.649Z,46.81
2023-09-22T12:30:38.804Z,46.92
2023-09-22T12:31:41.753Z,46.84
2023-09-22T12:32:45.001Z,47.03
2023-09-22T12:33:48.792Z,46.99
2023-09-22T12:34:52.338Z,47.09
2023-09-22T12:35:58.751Z,47.13
2023-09-22T12:37:02.016Z,47.24
2023-09-22T12:38:05.963Z,47.29
2023-09-22T12:39:11.829Z,47.31
2023-09-22T12:40:15.755Z,47.41
2023-09-22T12:41:18.993Z,47.59
2023-09-22T12:42:21.857Z,47.44
2023-09-22T12:43:26.042Z,47.65
2023-09-22T12:44:29.632Z,47.64
2023-09-22T12:45:33.357Z,47.66
2023-09-22T12:46:36.831Z,47.58
2023-09-22T12:47:40.146Z,47.73
2023-09-22T12:48:43.063Z,47.83
2023-09-22T12:49:46.018Z,47.64
2023-09-22T12:50:58.489Z,47.49
2023-09-22T12:52:02.636Z,47.77
2023-09-22T12:53:05.764Z,47.67
2023-09-22T12:54:08.858Z,47.68
2023-09-22T12:55:11.869Z,47.67
2023-09-22T12:56:15.074Z,47.73
2023-09-22T12:57:18.228Z,47.53
2023-09-22T12:58:21.133Z,47.74
2023-09-22T12:59:23.998Z,47.65
2023-09-22T13:00:26.874Z,47.56
2023-09-22T13:01:30.098Z,47.38
2023-09-22T13:02:36.733Z,47.25
2023-09-22T13:03:40.064Z,47.39
2023-09-22T13:04:46.230Z,47.22
2023-09-22T13:05:49.243Z,47.31
2023-09-22T13:06:55.329Z,47.19
2023-09-22T13:07:58.293Z,47.39
2023-09-22T13:09:02.133Z,47.40
2023-09-22T13:10:08.399Z,47.63
2023-09-22T13:11:17.032Z,47.43
2023-09-22T13:12:20.017Z,47.50
2023-09-22T13:13:23.246Z,47.29
2023-09-22T13:14:26.238Z,47.40
2023-09-22T13:15:29.245Z,47.07
2023-09-22T13:16:32.888Z,46.64
2023-09-22T13:17:37.904Z,46.84
2023-09-22T13:18:43.708Z,46.75
2023-09-22T13:19:47.043Z,46.48
2023-09-22T13:20:50.043Z,46.42
2023-09-22T13:21:53.028Z,46.55
2023-09-22T13:22:56.396Z,46.21
2023-09-22T13:23:59.666Z,46.26
2023-09-22T13:25:02.744Z,45.83
2023-09-22T13:26:06.595Z,45.96
2023-09-22T13:27:10.608Z,46.09
2023-09-22T13:28:14.414Z,45.91
2023-09-22T13:29:18.376Z,45.22
2023-09-22T13:30:21.309Z,45.23
2023-09-22T13:31:27.565Z,44.91
2023-09-22T13:32:30.759Z,45.13
2023-09-22T13:33:34.374Z,44.76
2023-09-22T13:34:38.602Z,44.58
2023-09-22T13:35:41.573Z,44.48
2023-09-22T13:36:44.516Z,44.66
2023-09-22T13:37:47.516Z,44.41
2023-09-22T13:38:51.096Z,44.71
2023-09-22T13:39:54.073Z,45.01
2023-09-22T13:40:57.739Z,44.63
2023-09-22T13:42:00.939Z,44.85
2023-09-22T13:43:06.272Z,44.88
2023-09-22T13:44:11.405Z,44.71
2023-09-22T13:45:14.446Z,44.91
2023-09-22T13:46:18.059Z,44.92
2023-09-22T13:47:21.328Z,44.78
2023-09-22T13:48:24.336Z,44.91
2023-09-22T13:49:27.696Z,45.36
2023-09-22T13:50:31.064Z,45.26
2023-09-22T13:51:33.970Z,45.30
2023-09-22T13:52:38.077Z,45.38
2023-09-22T13:53:41.825Z,45.55
2023-09-22T13:54:44.910Z,45.53
2023-09-22T13:55:51.179Z,45.67
2023-09-22T13:56:54.411Z,46.00
2023-09-22T13:57:57.315Z,45.83
2023-09-22T13:59:00.228Z,46.08